Harrisville, MI

9:44 AM EST on December 18, 2014 (GMT -0500)
Port Hope | Change Station
CLOSE
Current Station
Airport
Location: Port Hope,
Elevation: 587 ft
Nearby Weather Stations

Elev 587 ft 44.02 °N, 82.79 °W | Updated 53 minutes ago

Overcast
Overcast
29 °F
Feels Like 22 °F
N
7
Wind Variable Wind from NNW
Gusts 12 mph

Today
High -- | Low -- °F
--% Chance of Precip.
Yesterday
High -- | Low -- °F
Precip. -- in
8:05 AM 4:54 PM
Waning Crescent, 14% visible
Pressure 30.20 in
Visibility -9999.0 miles
Clouds
Windchill 22 °F
Dew Point 24 °F
Humidity 82%
Rainfall 0.00 in
Snow Depth Not available.
UV Not available.
Pollen .10 out of 12
Air Quality Not available.
Flu Activity Not available.
METAR KP58 181351Z AUTO 33006KT M02/M04 A3016 RMK AO1 SLP227 T10171044

More Conditions Fewer Conditions

Pressure 30.20 in
Visibility -9999.0 miles
Clouds
Windchill 22 °F
Dew Point 24 °F
Humidity 82%
Rainfall 0.00 in
Snow Depth Not available.
UV Not available.
Pollen .10 out of 12
Air Quality Not available.
Flu Activity Not available.
METAR KP58 181351Z AUTO 33006KT M02/M04 A3016 RMK AO1 SLP227 T10171044

More Conditions Fewer Conditions

Nowcast | as of 9:00 am EST on December 18, 2014

At 10 am...cloudy. Temperature 24. Northwest winds 8 mph. At 12 PM...mostly cloudy. Temperature 27. Northwest winds 8 mph. At 2 PM...partly sunny. Temperature 29. North winds 8 mph. At 4 PM...partly sunny. Temperature 28. North winds 7 mph.

×

10-Day Weather Forecast

Almanac

Astronomy

Dec. 18, 2014 Rise Set
Actual Time
Civil Twilight
Nautical Twilight
Astronomical Twilight
Moon
Length of Visible Light
Length of Day
Tomorrow will be .
, % of the Moon is Illuminated

Today's Extremes

State Highs State Lows

Community

WunderPhotos

Upload Photos

1,778,929 photos uploaded!

WunderBlogs® & News

Nearby

Air Quality

  Air Quality AQ Index Pollutant
Not available.

Snow Depth

Station Depth Elevation

Earthquake Activity

City Distance Mag. Time & Date
Minimum magnitude displayed is 2.5.

Coastal Water Temperatures

Place Temperature

Nearby Weather Stations